KAUW/AUW METAR and TAF weather

Enter ICAO airport designator
Station Type Date Time Source
KAUW METAR 2019/02/23 17:11 UTC NOAA

KAUW 231711Z AUTO 12014KT 6SM HZ SCT013 OVC026 M01/M04 A2990 RMK AO2 T10111039


Station Type Date Time Source
KAUW Decoded METAR 2019/02/23 17:11 UTC NOAA

WAUSAU DOWNTOWN AIRPORT, WI, United States (KAUW) 44-56N 089-37W 362M
Feb 23, 2019 - 12:11 PM EST / 2019.02.23 1711 UTC
Wind: from the ESE (120 degrees) at 16 MPH (14 KT):0
Visibility: 6 mile(s):0
Sky conditions: overcast
Weather: haze
Temperature: 30.0 F (-1.1 C)
Windchill: 19 F (-7 C):1
Dew Point: 25.0 F (-3.9 C)
Relative Humidity: 81%
Pressure (altimeter): 29.9 in. Hg (1012 hPa)
ob: KAUW 231711Z AUTO 12014KT 6SM HZ SCT013 OVC026 M01/M04 A2990 RMK AO2 T10111039
cycle: 17

Station Type Date Time Source
KAUW TAF 2019/02/23 18:28 UTC NOAA

TAF KAUW 231726Z 2318/2418 12015G22KT P6SM OVC025
FM232000 09009G15KT 6SM BR OVC006
FM240100 06010G18KT 1 1/2SM FZRASN BR OVC004
FM240400 36011G22KT 1SM FZRASN BLSN OVC006 WS019/08035KT
FM240900 31014G24KT 1SM -SN BLSN OVC004 WS020/34050KT
FM241400 30022G36KT 4SM -SHSN BLSN OVC015 WS020/31055KT


Example: see airport list